createdAt,value
2023-03-06T00:02:26.686Z,99224.94
2023-03-06T00:04:56.695Z,99224.94
2023-03-06T00:07:25.218Z,99225.72
2023-03-06T00:09:53.877Z,99217.28
2023-03-06T00:12:23.930Z,99223.97
2023-03-06T00:14:52.825Z,99226.59
2023-03-06T00:17:21.312Z,99221.50
2023-03-06T00:19:49.883Z,99233.28
2023-03-06T00:22:18.663Z,99224.00
2023-03-06T00:24:47.587Z,99229.06
2023-03-06T00:27:17.269Z,99230.72
2023-03-06T00:29:49.243Z,99230.72
2023-03-06T00:32:18.106Z,99225.69
2023-03-06T00:34:50.962Z,99226.59
2023-03-06T00:37:19.785Z,99236.69
2023-03-06T00:39:49.582Z,99235.00
2023-03-06T00:42:19.653Z,99233.28
2023-03-06T00:44:49.621Z,99229.06
2023-03-06T00:47:18.323Z,99229.97
2023-03-06T00:49:47.570Z,99232.50
2023-03-06T00:52:16.248Z,99227.44
2023-03-06T00:54:45.241Z,99232.53
2023-03-06T00:57:14.039Z,99230.00
2023-03-06T00:59:42.957Z,99230.75
2023-03-06T01:02:13.428Z,99224.00
2023-03-06T01:04:42.230Z,99216.44
2023-03-06T01:07:10.988Z,99223.19
2023-03-06T01:09:40.026Z,99212.13
2023-03-06T01:12:09.512Z,99218.09
2023-03-06T01:14:37.997Z,99223.06
2023-03-06T01:17:07.762Z,99217.09
2023-03-06T01:19:37.710Z,99213.69
2023-03-06T01:22:06.817Z,99212.84
2023-03-06T01:24:35.325Z,99220.41
2023-03-06T01:27:04.050Z,99221.28
2023-03-06T01:29:32.806Z,99216.19
2023-03-06T01:32:02.279Z,99216.13
2023-03-06T01:34:31.009Z,99216.09
2023-03-06T01:37:01.007Z,99215.28
2023-03-06T01:39:31.684Z,99211.88
2023-03-06T01:42:00.317Z,99210.22
2023-03-06T01:44:28.832Z,99208.53
2023-03-06T01:46:57.484Z,99209.41
2023-03-06T01:49:32.763Z,99199.31
2023-03-06T01:52:10.049Z,99202.75
2023-03-06T01:54:46.074Z,99208.66
2023-03-06T01:57:20.423Z,99197.72
2023-03-06T01:59:53.199Z,99205.31
2023-03-06T02:02:22.358Z,99193.47
2023-03-06T02:04:50.969Z,99202.75
2023-03-06T02:07:22.371Z,99195.94
2023-03-06T02:09:50.877Z,99203.50
2023-03-06T02:12:21.702Z,99195.88
2023-03-06T02:14:51.275Z,99206.91
2023-03-06T02:17:23.232Z,99198.47
2023-03-06T02:20:00.467Z,99205.22
2023-03-06T02:22:39.285Z,99200.16
2023-03-06T02:25:27.747Z,99202.66
2023-03-06T02:27:56.281Z,99201.00
2023-03-06T02:30:29.106Z,99203.50
2023-03-06T02:32:58.558Z,99194.94
2023-03-06T02:35:30.300Z,99201.00
2023-03-06T02:38:04.053Z,99205.13
2023-03-06T02:40:33.956Z,99197.56
2023-03-06T02:43:02.832Z,99195.75
2023-03-06T02:45:38.092Z,99191.56
2023-03-06T02:48:07.773Z,99202.59
2023-03-06T02:50:36.359Z,99192.47
2023-03-06T02:53:05.024Z,99200.91
2023-03-06T02:55:35.322Z,99198.38
2023-03-06T02:58:04.386Z,99195.81
2023-03-06T03:00:34.003Z,99200.88
2023-03-06T03:03:02.632Z,99192.47
2023-03-06T03:05:31.161Z,99199.97
2023-03-06T03:07:59.908Z,99192.38
2023-03-06T03:10:28.907Z,99194.06
2023-03-06T03:12:59.449Z,99195.75
2023-03-06T03:15:28.016Z,99196.56
2023-03-06T03:17:56.921Z,99188.19
2023-03-06T03:20:25.592Z,99192.38
2023-03-06T03:22:56.587Z,99188.28
2023-03-06T03:25:27.054Z,99189.13
2023-03-06T03:27:55.656Z,99196.66
2023-03-06T03:30:25.565Z,99193.34
2023-03-06T03:32:54.154Z,99190.78
2023-03-06T03:35:22.613Z,99198.38
2023-03-06T03:37:52.704Z,99192.47
2023-03-06T03:40:21.601Z,99195.84
2023-03-06T03:42:50.123Z,99188.28
2023-03-06T03:45:19.069Z,99186.50
2023-03-06T03:47:48.846Z,99194.00
2023-03-06T03:50:17.518Z,99186.50
2023-03-06T03:52:46.104Z,99188.19
2023-03-06T03:55:15.245Z,99181.47
2023-03-06T03:57:43.769Z,99183.16
2023-03-06T04:00:16.580Z,99183.16
2023-03-06T04:02:46.449Z,99186.50
2023-03-06T04:05:17.344Z,99178.88
2023-03-06T04:07:45.936Z,99179.75
2023-03-06T04:10:15.513Z,99180.63
2023-03-06T04:12:44.218Z,99170.53
2023-03-06T04:15:13.398Z,99174.72
2023-03-06T04:17:41.846Z,99175.59
2023-03-06T04:20:12.785Z,99173.06
2023-03-06T04:22:42.656Z,99178.13
2023-03-06T04:25:11.728Z,99180.66
2023-03-06T04:27:40.673Z,99183.16
2023-03-06T04:30:11.371Z,99174.75
2023-03-06T04:32:39.969Z,99175.56
2023-03-06T04:35:09.110Z,99167.97
2023-03-06T04:37:37.515Z,99164.66
2023-03-06T04:40:09.733Z,99165.44
2023-03-06T04:42:38.193Z,99172.13
2023-03-06T04:45:07.929Z,99161.97
2023-03-06T04:47:36.849Z,99168.69
2023-03-06T04:50:07.048Z,99159.31
2023-03-06T04:52:35.594Z,99164.38
2023-03-06T04:55:08.695Z,99155.94
2023-03-06T04:57:39.378Z,99155.00
2023-03-06T05:00:13.618Z,99154.16
2023-03-06T05:02:44.149Z,99154.16
2023-03-06T05:05:14.210Z,99154.19
2023-03-06T05:07:43.010Z,99158.44
2023-03-06T05:10:17.742Z,99155.94
2023-03-06T05:12:47.615Z,99152.50
2023-03-06T05:15:17.633Z,99161.81
2023-03-06T05:17:47.604Z,99160.16
2023-03-06T05:20:18.295Z,99159.31
2023-03-06T05:22:46.833Z,99152.59
2023-03-06T05:25:15.801Z,99155.19
2023-03-06T05:27:44.395Z,99156.09
2023-03-06T05:30:16.784Z,99148.66
2023-03-06T05:32:46.042Z,99150.47
2023-03-06T05:35:21.499Z,99153.13
2023-03-06T05:37:50.647Z,99149.03
2023-03-06T05:40:20.507Z,99151.66
2023-03-06T05:42:49.009Z,99152.66
2023-03-06T05:45:18.984Z,99151.16
2023-03-06T05:47:47.692Z,99153.84
2023-03-06T05:50:16.148Z,99154.06
2023-03-06T05:52:44.621Z,99152.59
2023-03-06T05:55:14.450Z,99149.34
2023-03-06T05:57:42.814Z,99157.19
2023-03-06T06:00:13.048Z,99161.47
2023-03-06T06:02:43.807Z,99165.97
2023-03-06T06:05:13.757Z,99161.88
2023-03-06T06:07:42.509Z,99160.31
2023-03-06T06:10:13.408Z,99167.00
2023-03-06T06:12:42.353Z,99158.69
2023-03-06T06:15:11.637Z,99154.59
2023-03-06T06:17:40.077Z,99158.13
2023-03-06T06:20:13.806Z,99159.16
2023-03-06T06:22:42.640Z,99163.56
2023-03-06T06:25:11.396Z,99163.75
2023-03-06T06:27:39.931Z,99163.97
2023-03-06T06:30:11.855Z,99165.84
2023-03-06T06:32:40.721Z,99162.59
2023-03-06T06:35:11.543Z,99170.31
2023-03-06T06:37:40.016Z,99166.19
2023-03-06T06:40:10.662Z,99170.50
2023-03-06T06:42:40.254Z,99161.66
2023-03-06T06:45:11.627Z,99164.75
2023-03-06T06:47:41.929Z,99166.28
2023-03-06T06:50:14.341Z,99158.97
2023-03-06T06:52:43.450Z,99163.19
2023-03-06T06:55:13.971Z,99159.00
2023-03-06T06:57:44.003Z,99155.75
2023-03-06T07:00:17.127Z,99157.53
2023-03-06T07:02:50.668Z,99155.88
2023-03-06T07:05:21.765Z,99159.34
2023-03-06T07:07:52.047Z,99145.13
2023-03-06T07:10:21.657Z,99156.28
2023-03-06T07:12:50.149Z,99142.19
2023-03-06T07:15:19.669Z,99152.69
2023-03-06T07:17:50.023Z,99143.81
2023-03-06T07:20:21.528Z,99142.50
2023-03-06T07:22:52.011Z,99145.44
2023-03-06T07:25:23.614Z,99144.97
2023-03-06T07:27:55.444Z,99130.06
2023-03-06T07:30:26.416Z,99133.56
2023-03-06T07:32:56.450Z,99134.47
2023-03-06T07:35:27.366Z,99130.19
2023-03-06T07:37:56.015Z,99122.56
2023-03-06T07:40:25.108Z,99143.81
2023-03-06T07:43:06.067Z,99143.03
2023-03-06T07:45:41.700Z,99146.59
2023-03-06T07:48:11.106Z,99153.50
2023-03-06T07:50:41.948Z,99149.34
2023-03-06T07:53:11.573Z,99147.97
2023-03-06T07:55:42.577Z,99153.19
2023-03-06T07:58:11.030Z,99145.66
2023-03-06T08:00:39.776Z,99150.81
2023-03-06T08:03:08.574Z,99143.19
2023-03-06T08:05:37.374Z,99143.22
2023-03-06T08:08:08.265Z,99138.13
2023-03-06T08:10:36.715Z,99139.84
2023-03-06T08:13:06.352Z,99147.47
2023-03-06T08:15:34.733Z,99146.66
2023-03-06T08:18:03.321Z,99139.84
2023-03-06T08:20:31.895Z,99135.59
2023-03-06T08:23:00.352Z,99143.25
2023-03-06T08:25:30.460Z,99132.22
2023-03-06T08:28:02.173Z,99131.41
2023-03-06T08:30:31.662Z,99134.81
2023-03-06T08:33:01.411Z,99134.81
2023-03-06T08:35:29.933Z,99131.44
2023-03-06T08:37:58.601Z,99136.53
2023-03-06T08:40:30.979Z,99133.16
2023-03-06T08:43:02.118Z,99136.59
2023-03-06T08:45:30.715Z,99131.47
2023-03-06T08:47:59.091Z,99128.91
2023-03-06T08:50:27.540Z,99134.88
2023-03-06T08:52:55.926Z,99128.84
2023-03-06T08:55:24.335Z,99121.19
2023-03-06T08:57:52.779Z,99116.84
2023-03-06T09:00:23.219Z,99116.78
2023-03-06T09:02:51.828Z,99120.13
2023-03-06T09:05:20.657Z,99109.00
2023-03-06T09:07:49.149Z,99109.75
2023-03-06T09:10:20.867Z,99113.94
2023-03-06T09:12:52.511Z,99113.81
2023-03-06T09:15:25.124Z,99105.94
2023-03-06T09:17:58.240Z,99102.34
2023-03-06T09:20:26.660Z,99110.09
2023-03-06T09:22:55.180Z,99118.59
2023-03-06T09:25:23.836Z,99121.97
2023-03-06T09:28:08.680Z,99116.06
2023-03-06T09:30:42.152Z,99117.97
2023-03-06T09:33:10.694Z,99114.69
2023-03-06T09:35:48.575Z,99112.25
2023-03-06T09:38:17.266Z,99111.56
2023-03-06T09:41:03.159Z,99108.22
2023-03-06T09:43:36.972Z,99109.91
2023-03-06T09:46:21.832Z,99100.47
2023-03-06T09:49:10.293Z,99102.91
2023-03-06T09:51:58.508Z,99105.41
2023-03-06T09:54:39.580Z,99100.41
2023-03-06T09:57:20.374Z,99102.16
2023-03-06T09:59:53.317Z,99104.72
2023-03-06T10:02:32.984Z,99093.72
2023-03-06T10:05:09.493Z,99098.91
2023-03-06T10:07:46.705Z,99092.16
2023-03-06T10:10:23.458Z,99093.94
2023-03-06T10:13:03.462Z,99086.31
2023-03-06T10:15:36.225Z,99087.19
2023-03-06T10:18:07.052Z,99086.38
2023-03-06T10:20:43.884Z,99076.19
2023-03-06T10:23:42.882Z,99078.72
2023-03-06T10:26:17.653Z,99089.78
2023-03-06T10:28:53.907Z,99080.44
2023-03-06T10:31:26.160Z,99080.47
2023-03-06T10:33:59.155Z,99070.28
2023-03-06T10:36:29.818Z,99076.22
2023-03-06T10:39:00.917Z,99078.81
2023-03-06T10:41:31.482Z,99087.28
2023-03-06T10:44:20.914Z,99080.47
2023-03-06T10:46:52.695Z,99074.53
2023-03-06T10:49:31.307Z,99073.66
2023-03-06T10:52:03.279Z,99074.50
2023-03-06T10:54:34.602Z,99072.75
2023-03-06T10:57:26.570Z,99060.00
2023-03-06T10:59:57.118Z,99068.44
2023-03-06T11:02:32.545Z,99063.31
2023-03-06T11:05:04.762Z,99064.16
2023-03-06T11:07:34.603Z,99061.56
2023-03-06T11:10:18.016Z,99056.44
2023-03-06T11:13:00.350Z,99050.44
2023-03-06T11:15:30.090Z,99045.34
2023-03-06T11:18:04.481Z,99036.88
2023-03-06T11:20:52.167Z,99050.47
2023-03-06T11:23:30.113Z,99024.22
2023-03-06T11:26:03.357Z,99028.50
2023-03-06T11:28:35.937Z,99024.25
2023-03-06T11:31:11.713Z,99018.28
2023-03-06T11:33:48.880Z,99017.44
2023-03-06T11:36:27.585Z,99013.19
2023-03-06T11:38:56.442Z,99007.22
2023-03-06T11:41:38.389Z,99002.94
2023-03-06T11:44:20.114Z,99010.50
2023-03-06T11:46:56.628Z,99007.94
2023-03-06T11:49:33.288Z,99013.88
2023-03-06T11:52:11.761Z,98998.59
2023-03-06T11:54:40.341Z,98995.22
2023-03-06T11:57:16.692Z,98996.88
2023-03-06T12:00:30.558Z,98996.03
2023-03-06T12:03:48.342Z,98992.59
2023-03-06T12:06:30.801Z,98991.75
2023-03-06T12:09:26.610Z,98994.22
2023-03-06T12:15:16.334Z,98984.78
2023-03-06T12:18:06.564Z,98979.66
2023-03-06T12:20:51.915Z,98979.63
2023-03-06T12:23:41.852Z,98984.63
2023-03-06T12:26:52.761Z,98973.59
2023-03-06T12:29:37.562Z,98977.81
2023-03-06T12:32:21.323Z,98976.94
2023-03-06T12:35:30.450Z,98978.56
2023-03-06T12:38:19.207Z,98977.66
2023-03-06T12:41:06.248Z,98968.28
2023-03-06T12:44:37.678Z,98974.19
2023-03-06T12:47:11.886Z,98969.94
2023-03-06T12:49:46.045Z,98970.72
2023-03-06T12:52:30.249Z,98958.81
2023-03-06T12:55:03.011Z,98957.94
2023-03-06T12:57:31.581Z,98961.28
2023-03-06T13:00:00.306Z,98958.75
2023-03-06T13:03:12.540Z,98951.09
2023-03-06T13:06:23.041Z,98946.00
2023-03-06T13:09:18.853Z,98943.38
2023-03-06T13:12:07.553Z,98954.38
2023-03-06T13:14:58.691Z,98937.44
2023-03-06T13:17:43.297Z,98942.53
2023-03-06T13:20:43.142Z,98943.41
2023-03-06T13:23:51.862Z,98940.97
2023-03-06T13:27:00.892Z,98935.06
2023-03-06T13:30:23.335Z,98934.28
2023-03-06T13:32:54.168Z,98933.50
2023-03-06T13:35:54.349Z,98930.91
2023-03-06T13:39:10.037Z,98923.28
2023-03-06T13:41:58.791Z,98931.72
2023-03-06T13:44:51.218Z,98920.78
2023-03-06T13:48:09.589Z,98921.59
2023-03-06T13:50:50.306Z,98920.75
2023-03-06T13:54:05.072Z,98912.25
2023-03-06T13:57:38.259Z,98919.94
2023-03-06T14:00:35.254Z,98922.53
2023-03-06T14:04:04.675Z,98917.50
2023-03-06T14:06:54.188Z,98911.66
2023-03-06T14:09:29.798Z,98904.03
2023-03-06T14:12:06.213Z,98904.09
2023-03-06T14:14:43.409Z,98906.63
2023-03-06T14:17:26.813Z,98900.72
2023-03-06T14:19:57.660Z,98904.97
2023-03-06T14:22:27.466Z,98895.66
2023-03-06T14:25:03.539Z,98899.94
2023-03-06T14:27:45.713Z,98897.38
2023-03-06T14:30:18.494Z,98898.22
2023-03-06T14:32:49.958Z,98894.84
2023-03-06T14:35:29.523Z,98895.75
2023-03-06T14:38:03.336Z,98892.41
2023-03-06T14:40:36.394Z,98893.28
2023-03-06T14:43:23.814Z,98894.13
2023-03-06T14:45:56.379Z,98889.91
2023-03-06T14:48:27.100Z,98887.38
2023-03-06T14:50:58.104Z,98888.22
2023-03-06T14:53:31.393Z,98889.09
2023-03-06T14:56:05.929Z,98890.78
2023-03-06T14:58:39.606Z,98890.78
2023-03-06T15:01:13.278Z,98878.97
2023-03-06T15:03:46.835Z,98884.03
2023-03-06T15:06:21.617Z,98883.16
2023-03-06T15:09:00.001Z,98879.78
2023-03-06T15:11:28.493Z,98877.25
2023-03-06T15:14:04.599Z,98881.47
2023-03-06T15:16:33.179Z,98878.13
2023-03-06T15:19:03.863Z,98884.91
2023-03-06T15:21:36.699Z,98885.75
2023-03-06T15:24:33.238Z,98887.47
2023-03-06T15:27:08.860Z,98886.63
2023-03-06T15:29:40.133Z,98884.91
2023-03-06T15:32:29.096Z,98884.09
2023-03-06T15:35:27.692Z,98880.69
2023-03-06T15:37:58.203Z,98873.91
2023-03-06T15:40:31.985Z,98879.00
2023-03-06T15:43:01.243Z,98882.34
2023-03-06T15:45:32.096Z,98873.88
2023-03-06T15:48:00.553Z,98880.63
2023-03-06T15:50:30.741Z,98883.16
2023-03-06T15:52:59.192Z,98876.41
2023-03-06T15:55:29.123Z,98877.22
2023-03-06T15:58:02.153Z,98874.69
2023-03-06T16:00:34.211Z,98884.81
2023-03-06T16:03:05.309Z,98881.41
2023-03-06T16:05:33.864Z,98878.03
2023-03-06T16:08:02.234Z,98889.84
2023-03-06T16:10:36.850Z,98885.63
2023-03-06T16:13:09.681Z,98888.16
2023-03-06T16:15:41.447Z,98882.22
2023-03-06T16:18:13.357Z,98886.44
2023-03-06T16:20:42.370Z,98887.25
2023-03-06T16:23:11.496Z,98888.09
2023-03-06T16:25:44.210Z,98888.94
2023-03-06T16:28:15.767Z,98889.78
2023-03-06T16:30:45.815Z,98893.16
2023-03-06T16:33:15.233Z,98891.47
2023-03-06T16:35:46.601Z,98888.94
2023-03-06T16:38:16.316Z,98880.47
2023-03-06T16:40:46.100Z,98882.16
2023-03-06T16:43:16.187Z,98891.47
2023-03-06T16:45:45.213Z,98892.28
2023-03-06T16:48:18.392Z,98893.13
2023-03-06T16:50:47.409Z,98891.41
2023-03-06T16:53:16.517Z,98888.03
2023-03-06T16:55:49.488Z,98891.38
2023-03-06T16:58:18.068Z,98887.16
2023-03-06T17:00:46.480Z,98894.78
2023-03-06T17:03:16.802Z,98902.38
2023-03-06T17:05:45.929Z,98892.22
2023-03-06T17:08:14.434Z,98898.16
2023-03-06T17:10:43.655Z,98886.31
2023-03-06T17:13:13.646Z,98895.63
2023-03-06T17:15:42.567Z,98894.81
2023-03-06T17:18:10.942Z,98898.19
2023-03-06T17:20:39.501Z,98892.25
2023-03-06T17:23:07.999Z,98893.06
2023-03-06T17:25:38.472Z,98892.25
2023-03-06T17:28:07.007Z,98898.13
2023-03-06T17:30:37.117Z,98894.78
2023-03-06T17:33:05.644Z,98898.16
2023-03-06T17:35:36.785Z,98902.34
2023-03-06T17:38:05.464Z,98894.75
2023-03-06T17:40:35.832Z,98894.72
2023-03-06T17:43:04.782Z,98898.13
2023-03-06T17:45:34.277Z,98892.19
2023-03-06T17:48:04.132Z,98890.50
2023-03-06T17:50:32.498Z,98897.25
2023-03-06T17:53:00.857Z,98895.56
2023-03-06T17:55:30.013Z,98896.41
2023-03-06T17:57:59.081Z,98898.09
2023-03-06T18:00:28.401Z,98901.47
2023-03-06T18:02:56.743Z,98891.34
2023-03-06T18:05:26.556Z,98891.34
2023-03-06T18:07:55.038Z,98886.28
2023-03-06T18:10:23.692Z,98885.44
2023-03-06T18:12:52.504Z,98884.59
2023-03-06T18:15:22.585Z,98881.25
2023-03-06T18:17:51.118Z,98886.31
2023-03-06T18:20:19.809Z,98891.38
2023-03-06T18:22:49.584Z,98882.94
2023-03-06T18:25:18.365Z,98889.69
2023-03-06T18:27:46.980Z,98887.16
2023-03-06T18:30:16.232Z,98891.38
2023-03-06T18:32:44.685Z,98885.47
2023-03-06T18:35:13.210Z,98893.94
2023-03-06T18:37:41.663Z,98893.09
2023-03-06T18:40:13.912Z,98886.31
2023-03-06T18:42:43.273Z,98894.75
2023-03-06T18:45:13.275Z,98887.09
2023-03-06T18:47:42.127Z,98896.44
2023-03-06T18:50:16.510Z,98894.72
2023-03-06T18:52:45.337Z,98899.78
2023-03-06T18:55:15.709Z,98890.50
2023-03-06T18:57:44.232Z,98890.53
2023-03-06T19:00:15.674Z,98886.28
2023-03-06T19:02:44.637Z,98884.59
2023-03-06T19:05:13.231Z,98877.00
2023-03-06T19:07:41.792Z,98880.38
2023-03-06T19:10:12.700Z,98877.84
2023-03-06T19:12:42.617Z,98878.69
2023-03-06T19:15:11.810Z,98871.06
2023-03-06T19:17:40.159Z,98882.91
2023-03-06T19:20:10.295Z,98876.97
2023-03-06T19:22:38.714Z,98878.63
2023-03-06T19:25:09.011Z,98868.47
2023-03-06T19:27:39.428Z,98873.56
2023-03-06T19:30:11.815Z,98884.53
2023-03-06T19:32:40.499Z,98880.28
2023-03-06T19:35:11.065Z,98879.44
2023-03-06T19:37:40.003Z,98878.59
2023-03-06T19:40:12.954Z,98876.06
2023-03-06T19:42:41.707Z,98877.75
2023-03-06T19:45:13.149Z,98880.28
2023-03-06T19:47:41.736Z,98874.41
2023-03-06T19:50:11.949Z,98869.31
2023-03-06T19:52:40.341Z,98869.31
2023-03-06T19:55:10.538Z,98864.22
2023-03-06T19:57:40.231Z,98868.41
2023-03-06T20:00:12.474Z,98870.97
2023-03-06T20:02:42.061Z,98872.63
2023-03-06T20:05:11.103Z,98876.00
2023-03-06T20:07:39.699Z,98872.63
2023-03-06T20:10:09.512Z,98868.38
2023-03-06T20:12:38.279Z,98868.41
2023-03-06T20:15:08.815Z,98870.91
2023-03-06T20:17:43.136Z,98870.03
2023-03-06T20:20:13.569Z,98866.63
2023-03-06T20:22:42.373Z,98875.06
2023-03-06T20:25:11.493Z,98877.56
2023-03-06T20:27:40.798Z,98866.59
2023-03-06T20:30:14.144Z,98869.97
2023-03-06T20:32:43.883Z,98862.34
2023-03-06T20:35:12.886Z,98875.00
2023-03-06T20:37:41.817Z,98875.84
2023-03-06T20:40:12.197Z,98874.13
2023-03-06T20:42:40.619Z,98869.91
2023-03-06T20:45:10.424Z,98871.59
2023-03-06T20:47:38.853Z,98873.31
2023-03-06T20:50:10.079Z,98869.09
2023-03-06T20:52:38.769Z,98874.16
2023-03-06T20:55:08.746Z,98875.00
2023-03-06T20:57:37.237Z,98869.09
2023-03-06T21:00:08.789Z,98867.41
2023-03-06T21:02:37.465Z,98873.28
2023-03-06T21:05:06.704Z,98874.97
2023-03-06T21:07:37.072Z,98867.34
2023-03-06T21:10:06.900Z,98869.03
2023-03-06T21:12:35.418Z,98866.50
2023-03-06T21:15:03.905Z,98869.88
2023-03-06T21:17:32.460Z,98863.09
2023-03-06T21:20:00.889Z,98860.53
2023-03-06T21:22:30.327Z,98865.56
2023-03-06T21:25:00.055Z,98870.66
2023-03-06T21:27:28.678Z,98869.78
2023-03-06T21:29:57.118Z,98862.16
2023-03-06T21:32:25.600Z,98863.00
2023-03-06T21:34:54.201Z,98861.34
2023-03-06T21:37:22.602Z,98865.56
2023-03-06T21:39:51.135Z,98866.41
2023-03-06T21:42:20.998Z,98866.41
2023-03-06T21:44:49.522Z,98865.56
2023-03-06T21:47:17.906Z,98863.88
2023-03-06T21:49:46.280Z,98863.03
2023-03-06T21:52:14.951Z,98863.03
2023-03-06T21:54:43.637Z,98871.53
2023-03-06T21:57:11.943Z,98867.28
2023-03-06T21:59:42.026Z,98866.41
2023-03-06T22:02:12.222Z,98867.28
2023-03-06T22:04:41.634Z,98869.84
2023-03-06T22:07:10.134Z,98873.22
2023-03-06T22:09:38.491Z,98881.66
2023-03-06T22:12:07.729Z,98871.50
2023-03-06T22:14:36.235Z,98875.72
2023-03-06T22:17:06.300Z,98881.66
2023-03-06T22:19:35.093Z,98889.28
2023-03-06T22:22:03.914Z,98884.16
2023-03-06T22:24:32.540Z,98884.97
2023-03-06T22:27:01.237Z,98887.47
2023-03-06T22:29:29.674Z,98877.34
2023-03-06T22:31:58.383Z,98890.00
2023-03-06T22:34:28.233Z,98886.59
2023-03-06T22:36:56.713Z,98892.50
2023-03-06T22:39:25.385Z,98891.63
2023-03-06T22:41:56.851Z,98889.09
2023-03-06T22:44:25.449Z,98900.91
2023-03-06T22:46:53.908Z,98894.13
2023-03-06T22:49:22.780Z,98899.22
2023-03-06T22:51:52.616Z,98903.44
2023-03-06T22:54:21.027Z,98904.25
2023-03-06T22:56:49.378Z,98902.56
2023-03-06T22:59:17.842Z,98913.53
2023-03-06T23:01:46.261Z,98911.84
2023-03-06T23:04:14.753Z,98915.25
2023-03-06T23:06:44.791Z,98910.13
2023-03-06T23:09:18.281Z,98906.72
2023-03-06T23:11:46.804Z,98904.97
2023-03-06T23:14:17.015Z,98911.66
2023-03-06T23:16:45.813Z,98916.66
2023-03-06T23:19:14.323Z,98912.38
2023-03-06T23:21:42.980Z,98914.81
2023-03-06T23:24:11.750Z,98924.91
2023-03-06T23:26:41.678Z,98915.56
2023-03-06T23:29:10.028Z,98926.50
2023-03-06T23:31:38.472Z,98930.69
2023-03-06T23:34:07.097Z,98937.41
2023-03-06T23:36:36.406Z,98924.72
2023-03-06T23:39:05.177Z,98932.25
2023-03-06T23:41:33.555Z,98935.63
2023-03-06T23:44:03.346Z,98941.50
2023-03-06T23:46:32.194Z,98932.16
2023-03-06T23:49:00.816Z,98932.97
2023-03-06T23:51:29.202Z,98942.25
2023-03-06T23:54:00.545Z,98933.75
2023-03-06T23:56:30.215Z,98937.97
2023-03-06T23:58:58.605Z,98936.22
